sensor_id;sensor_type;location;lat;lon;timestamp;pressure;altitude;pressure_sealevel;temperature;humidity
68077;BME280;54866;53.458;14.540;2023-01-29T00:00:39;101617.33;;;-1.59;88.87
68077;BME280;54866;53.458;14.540;2023-01-29T00:03:08;101619.90;;;-1.57;88.97
68077;BME280;54866;53.458;14.540;2023-01-29T00:05:37;101614.73;;;-1.58;88.99
68077;BME280;54866;53.458;14.540;2023-01-29T00:08:07;101614.20;;;-1.56;88.82
68077;BME280;54866;53.458;14.540;2023-01-29T00:10:36;101609.89;;;-1.56;89.03
68077;BME280;54866;53.458;14.540;2023-01-29T00:13:05;101612.82;;;-1.55;88.98
68077;BME280;54866;53.458;14.540;2023-01-29T00:15:35;101614.53;;;-1.54;89.30
68077;BME280;54866;53.458;14.540;2023-01-29T00:18:04;101613.83;;;-1.54;89.29
68077;BME280;54866;53.458;14.540;2023-01-29T00:20:34;101613.31;;;-1.54;89.41
68077;BME280;54866;53.458;14.540;2023-01-29T00:23:04;101616.75;;;-1.53;89.53
68077;BME280;54866;53.458;14.540;2023-01-29T00:25:33;101612.25;;;-1.52;89.66
68077;BME280;54866;53.458;14.540;2023-01-29T00:28:02;101609.30;;;-1.52;89.83
68077;BME280;54866;53.458;14.540;2023-01-29T00:30:32;101612.59;;;-1.52;90.05
68077;BME280;54866;53.458;14.540;2023-01-29T00:33:01;101615.52;;;-1.50;90.53
68077;BME280;54866;53.458;14.540;2023-01-29T00:35:31;101619.11;;;-1.49;90.63
68077;BME280;54866;53.458;14.540;2023-01-29T00:38:01;101617.56;;;-1.49;91.08
68077;BME280;54866;53.458;14.540;2023-01-29T00:40:30;101619.64;;;-1.49;91.64
68077;BME280;54866;53.458;14.540;2023-01-29T00:43:22;101617.52;;;-1.46;91.98
68077;BME280;54866;53.458;14.540;2023-01-29T00:46:09;101606.44;;;-1.45;91.74
68077;BME280;54866;53.458;14.540;2023-01-29T00:48:39;101608.81;;;-1.42;91.75
68077;BME280;54866;53.458;14.540;2023-01-29T00:51:08;101613.98;;;-1.40;91.99
68077;BME280;54866;53.458;14.540;2023-01-29T00:53:37;101613.10;;;-1.38;91.94
68077;BME280;54866;53.458;14.540;2023-01-29T00:56:07;101604.77;;;-1.35;91.93
68077;BME280;54866;53.458;14.540;2023-01-29T00:58:36;101604.89;;;-1.33;92.05
68077;BME280;54866;53.458;14.540;2023-01-29T01:01:06;101596.23;;;-1.32;91.93
68077;BME280;54866;53.458;14.540;2023-01-29T01:03:36;101593.09;;;-1.30;91.94
68077;BME280;54866;53.458;14.540;2023-01-29T01:06:10;101584.11;;;-1.31;92.34
68077;BME280;54866;53.458;14.540;2023-01-29T01:08:39;101584.05;;;-1.28;92.35
68077;BME280;54866;53.458;14.540;2023-01-29T01:11:26;101586.48;;;-1.28;92.46
68077;BME280;54866;53.458;14.540;2023-01-29T01:13:55;101580.95;;;-1.28;92.54
68077;BME280;54866;53.458;14.540;2023-01-29T01:16:27;101585.27;;;-1.27;92.61
68077;BME280;54866;53.458;14.540;2023-01-29T01:18:56;101578.57;;;-1.30;92.88
68077;BME280;54866;53.458;14.540;2023-01-29T01:21:26;101576.47;;;-1.29;93.05
68077;BME280;54866;53.458;14.540;2023-01-29T01:23:55;101576.48;;;-1.29;93.42
68077;BME280;54866;53.458;14.540;2023-01-29T01:26:24;101572.52;;;-1.30;94.25
68077;BME280;54866;53.458;14.540;2023-01-29T01:28:54;101572.93;;;-1.34;95.45
68077;BME280;54866;53.458;14.540;2023-01-29T01:31:23;101572.45;;;-1.36;95.98
68077;BME280;54866;53.458;14.540;2023-01-29T01:33:53;101568.48;;;-1.37;96.24
68077;BME280;54866;53.458;14.540;2023-01-29T01:36:22;101566.08;;;-1.39;96.19
68077;BME280;54866;53.458;14.540;2023-01-29T01:38:52;101558.66;;;-1.39;96.30
68077;BME280;54866;53.458;14.540;2023-01-29T01:41:22;101554.54;;;-1.40;96.60
68077;BME280;54866;53.458;14.540;2023-01-29T01:43:54;101555.20;;;-1.38;97.25
68077;BME280;54866;53.458;14.540;2023-01-29T01:46:25;101556.05;;;-1.37;97.37
68077;BME280;54866;53.458;14.540;2023-01-29T01:48:59;101555.20;;;-1.38;97.66
68077;BME280;54866;53.458;14.540;2023-01-29T01:51:28;101550.52;;;-1.38;97.92
68077;BME280;54866;53.458;14.540;2023-01-29T01:54:02;101554.33;;;-1.38;98.37
68077;BME280;54866;53.458;14.540;2023-01-29T01:56:39;101554.83;;;-1.37;98.78
68077;BME280;54866;53.458;14.540;2023-01-29T01:59:12;101553.96;;;-1.37;99.22
68077;BME280;54866;53.458;14.540;2023-01-29T02:01:45;101547.55;;;-1.35;99.35
68077;BME280;54866;53.458;14.540;2023-01-29T02:04:19;101545.10;;;-1.34;99.39
68077;BME280;54866;53.458;14.540;2023-01-29T02:07:10;101540.25;;;-1.34;99.33
68077;BME280;54866;53.458;14.540;2023-01-29T02:10:04;101539.36;;;-1.32;99.58
68077;BME280;54866;53.458;14.540;2023-01-29T02:12:36;101538.64;;;-1.30;99.66
68077;BME280;54866;53.458;14.540;2023-01-29T02:15:07;101537.56;;;-1.29;99.75
68077;BME280;54866;53.458;14.540;2023-01-29T02:17:37;101536.34;;;-1.27;99.99
68077;BME280;54866;53.458;14.540;2023-01-29T02:20:13;101532.33;;;-1.26;99.91
68077;BME280;54866;53.458;14.540;2023-01-29T02:23:10;101532.63;;;-1.23;99.94
68077;BME280;54866;53.458;14.540;2023-01-29T02:26:10;101532.29;;;-1.23;99.85
68077;BME280;54866;53.458;14.540;2023-01-29T02:28:45;101528.80;;;-1.19;99.97
68077;BME280;54866;53.458;14.540;2023-01-29T02:31:23;101527.38;;;-1.17;99.95
68077;BME280;54866;53.458;14.540;2023-01-29T02:34:00;101529.07;;;-1.16;99.98
68077;BME280;54866;53.458;14.540;2023-01-29T02:36:39;101526.63;;;-1.14;100.00
68077;BME280;54866;53.458;14.540;2023-01-29T02:39:15;101525.38;;;-1.12;100.00
68077;BME280;54866;53.458;14.540;2023-01-29T02:41:57;101526.05;;;-1.11;99.98
68077;BME280;54866;53.458;14.540;2023-01-29T02:44:32;101525.32;;;-1.09;100.00
68077;BME280;54866;53.458;14.540;2023-01-29T02:47:08;101520.48;;;-1.09;99.98
68077;BME280;54866;53.458;14.540;2023-01-29T02:49:45;101517.32;;;-1.07;100.00
68077;BME280;54866;53.458;14.540;2023-01-29T02:52:18;101516.95;;;-1.04;99.99
68077;BME280;54866;53.458;14.540;2023-01-29T02:54:52;101510.20;;;-1.04;100.00
68077;BME280;54866;53.458;14.540;2023-01-29T02:57:25;101506.70;;;-1.01;100.00
68077;BME280;54866;53.458;14.540;2023-01-29T03:00:02;101506.47;;;-0.98;100.00
68077;BME280;54866;53.458;14.540;2023-01-29T03:02:34;101501.77;;;-0.97;100.00
68077;BME280;54866;53.458;14.540;2023-01-29T03:05:10;101492.96;;;-0.98;100.00
68077;BME280;54866;53.458;14.540;2023-01-29T03:07:44;101490.86;;;-0.96;100.00
68077;BME280;54866;53.458;14.540;2023-01-29T03:10:20;101484.09;;;-0.95;100.00
68077;BME280;54866;53.458;14.540;2023-01-29T03:12:53;101484.06;;;-0.93;100.00
68077;BME280;54866;53.458;14.540;2023-01-29T03:15:27;101478.70;;;-0.94;100.00
68077;BME280;54866;53.458;14.540;2023-01-29T03:18:00;101480.25;;;-0.93;100.00
68077;BME280;54866;53.458;14.540;2023-01-29T03:20:36;101479.39;;;-0.94;100.00
68077;BME280;54866;53.458;14.540;2023-01-29T03:23:12;101479.17;;;-0.91;100.00
68077;BME280;54866;53.458;14.540;2023-01-29T03:25:43;101465.34;;;-0.91;100.00
68077;BME280;54866;53.458;14.540;2023-01-29T03:28:30;101460.66;;;-0.91;100.00
68077;BME280;54866;53.458;14.540;2023-01-29T03:31:18;101454.60;;;-0.91;100.00
68077;BME280;54866;53.458;14.540;2023-01-29T03:34:08;101458.77;;;-0.92;100.00
68077;BME280;54866;53.458;14.540;2023-01-29T03:36:48;101459.11;;;-0.92;100.00
68077;BME280;54866;53.458;14.540;2023-01-29T03:39:23;101456.16;;;-0.91;100.00
68077;BME280;54866;53.458;14.540;2023-01-29T03:41:59;101453.05;;;-0.90;100.00
68077;BME280;54866;53.458;14.540;2023-01-29T03:44:37;101452.11;;;-0.87;100.00
68077;BME280;54866;53.458;14.540;2023-01-29T03:47:19;101454.70;;;-0.86;100.00
68077;BME280;54866;53.458;14.540;2023-01-29T03:49:58;101461.42;;;-0.84;100.00
68077;BME280;54866;53.458;14.540;2023-01-29T03:52:34;101461.18;;;-0.81;100.00
68077;BME280;54866;53.458;14.540;2023-01-29T03:55:11;101454.46;;;-0.82;100.00
68077;BME280;54866;53.458;14.540;2023-01-29T03:57:46;101459.43;;;-0.80;100.00
68077;BME280;54866;53.458;14.540;2023-01-29T04:00:25;101454.59;;;-0.80;100.00
68077;BME280;54866;53.458;14.540;2023-01-29T04:03:03;101456.99;;;-0.79;100.00
68077;BME280;54866;53.458;14.540;2023-01-29T04:05:38;101463.21;;;-0.79;100.00
68077;BME280;54866;53.458;14.540;2023-01-29T04:08:13;101463.72;;;-0.78;100.00
68077;BME280;54866;53.458;14.540;2023-01-29T04:10:45;101465.23;;;-0.76;100.00
68077;BME280;54866;53.458;14.540;2023-01-29T04:13:16;101462.63;;;-0.76;100.00
68077;BME280;54866;53.458;14.540;2023-01-29T04:15:48;101455.69;;;-0.75;100.00
68077;BME280;54866;53.458;14.540;2023-01-29T04:18:18;101459.62;;;-0.73;100.00
68077;BME280;54866;53.458;14.540;2023-01-29T04:20:48;101457.54;;;-0.72;100.00
68077;BME280;54866;53.458;14.540;2023-01-29T04:23:25;101447.30;;;-0.71;100.00
68077;BME280;54866;53.458;14.540;2023-01-29T04:26:05;101441.59;;;-0.71;100.00
68077;BME280;54866;53.458;14.540;2023-01-29T04:28:49;101439.86;;;-0.70;100.00
68077;BME280;54866;53.458;14.540;2023-01-29T04:31:24;101436.23;;;-0.71;100.00
68077;BME280;54866;53.458;14.540;2023-01-29T04:34:00;101442.09;;;-0.70;100.00
68077;BME280;54866;53.458;14.540;2023-01-29T04:36:35;101436.55;;;-0.70;100.00
68077;BME280;54866;53.458;14.540;2023-01-29T04:42:13;101449.64;;;-0.65;100.00
68077;BME280;54866;53.458;14.540;2023-01-29T04:44:49;101450.40;;;-0.69;100.00
68077;BME280;54866;53.458;14.540;2023-01-29T04:47:28;101454.52;;;-0.68;100.00
68077;BME280;54866;53.458;14.540;2023-01-29T04:50:05;101447.63;;;-0.69;100.00
68077;BME280;54866;53.458;14.540;2023-01-29T04:52:46;101449.70;;;-0.70;100.00
68077;BME280;54866;53.458;14.540;2023-01-29T04:55:24;101449.45;;;-0.75;100.00
68077;BME280;54866;53.458;14.540;2023-01-29T04:58:04;101456.48;;;-0.71;100.00
68077;BME280;54866;53.458;14.540;2023-01-29T05:00:39;101455.11;;;-0.72;100.00
68077;BME280;54866;53.458;14.540;2023-01-29T05:03:12;101447.64;;;-0.71;100.00
68077;BME280;54866;53.458;14.540;2023-01-29T05:05:46;101447.80;;;-0.71;100.00
68077;BME280;54866;53.458;14.540;2023-01-29T05:08:18;101447.29;;;-0.70;100.00
68077;BME280;54866;53.458;14.540;2023-01-29T05:10:50;101454.20;;;-0.69;100.00
68077;BME280;54866;53.458;14.540;2023-01-29T05:13:22;101446.78;;;-0.70;100.00
68077;BME280;54866;53.458;14.540;2023-01-29T05:15:55;101451.21;;;-0.66;100.00
68077;BME280;54866;53.458;14.540;2023-01-29T05:18:26;101449.07;;;-0.64;100.00
68077;BME280;54866;53.458;14.540;2023-01-29T05:20:56;101444.88;;;-0.62;100.00
68077;BME280;54866;53.458;14.540;2023-01-29T05:23:28;101440.18;;;-0.61;100.00
68077;BME280;54866;53.458;14.540;2023-01-29T05:25:57;101436.35;;;-0.59;100.00
68077;BME280;54866;53.458;14.540;2023-01-29T05:28:27;101433.25;;;-0.60;100.00
68077;BME280;54866;53.458;14.540;2023-01-29T05:30:56;101429.63;;;-0.61;100.00
68077;BME280;54866;53.458;14.540;2023-01-29T05:33:27;101426.73;;;-0.63;100.00
68077;BME280;54866;53.458;14.540;2023-01-29T05:35:58;101424.83;;;-0.63;100.00
68077;BME280;54866;53.458;14.540;2023-01-29T05:38:28;101419.13;;;-0.63;100.00
68077;BME280;54866;53.458;14.540;2023-01-29T05:40:59;101419.59;;;-0.61;100.00
68077;BME280;54866;53.458;14.540;2023-01-29T05:43:29;101427.38;;;-0.61;100.00
68077;BME280;54866;53.458;14.540;2023-01-29T05:45:59;101431.11;;;-0.57;100.00
68077;BME280;54866;53.458;14.540;2023-01-29T05:48:29;101432.82;;;-0.56;100.00
68077;BME280;54866;53.458;14.540;2023-01-29T05:51:01;101430.40;;;-0.57;100.00
68077;BME280;54866;53.458;14.540;2023-01-29T05:53:31;101427.25;;;-0.54;100.00
68077;BME280;54866;53.458;14.540;2023-01-29T05:56:03;101418.41;;;-0.54;100.00
68077;BME280;54866;53.458;14.540;2023-01-29T05:58:32;101415.65;;;-0.54;100.00
68077;BME280;54866;53.458;14.540;2023-01-29T06:01:10;101415.61;;;-0.53;100.00
68077;BME280;54866;53.458;14.540;2023-01-29T06:03:40;101414.05;;;-0.52;100.00
68077;BME280;54866;53.458;14.540;2023-01-29T06:06:09;101412.31;;;-0.51;100.00
68077;BME280;54866;53.458;14.540;2023-01-29T06:08:39;101406.95;;;-0.52;100.00
68077;BME280;54866;53.458;14.540;2023-01-29T06:11:10;101400.20;;;-0.51;100.00
68077;BME280;54866;53.458;14.540;2023-01-29T06:13:39;101398.30;;;-0.52;100.00
68077;BME280;54866;53.458;14.540;2023-01-29T06:16:10;101397.44;;;-0.52;100.00
68077;BME280;54866;53.458;14.540;2023-01-29T06:18:40;101395.55;;;-0.53;100.00
68077;BME280;54866;53.458;14.540;2023-01-29T06:21:12;101396.41;;;-0.53;100.00
68077;BME280;54866;53.458;14.540;2023-01-29T06:23:42;101393.13;;;-0.54;100.00
68077;BME280;54866;53.458;14.540;2023-01-29T06:26:13;101391.22;;;-0.53;100.00
68077;BME280;54866;53.458;14.540;2023-01-29T06:28:42;101387.61;;;-0.55;100.00
68077;BME280;54866;53.458;14.540;2023-01-29T06:31:13;101395.71;;;-0.53;100.00
68077;BME280;54866;53.458;14.540;2023-01-29T06:33:42;101401.09;;;-0.53;100.00
68077;BME280;54866;53.458;14.540;2023-01-29T06:36:11;101398.13;;;-0.52;100.00
68077;BME280;54866;53.458;14.540;2023-01-29T06:38:41;101394.84;;;-0.51;100.00
68077;BME280;54866;53.458;14.540;2023-01-29T06:41:12;101395.84;;;-0.50;100.00
68077;BME280;54866;53.458;14.540;2023-01-29T06:43:44;101386.82;;;-0.49;100.00
68077;BME280;54866;53.458;14.540;2023-01-29T06:46:14;101386.58;;;-0.46;100.00
68077;BME280;54866;53.458;14.540;2023-01-29T06:48:43;101386.50;;;-0.43;100.00
68077;BME280;54866;53.458;14.540;2023-01-29T06:51:13;101384.06;;;-0.42;100.00
68077;BME280;54866;53.458;14.540;2023-01-29T06:53:42;101394.23;;;-0.41;100.00
68077;BME280;54866;53.458;14.540;2023-01-29T06:56:11;101395.79;;;-0.41;100.00
68077;BME280;54866;53.458;14.540;2023-01-29T06:58:41;101394.71;;;-0.39;100.00
68077;BME280;54866;53.458;14.540;2023-01-29T07:01:12;101399.73;;;-0.38;100.00
68077;BME280;54866;53.458;14.540;2023-01-29T07:03:41;101401.61;;;-0.37;100.00
68077;BME280;54866;53.458;14.540;2023-01-29T07:06:11;101396.05;;;-0.37;100.00
68077;BME280;54866;53.458;14.540;2023-01-29T07:08:40;101394.29;;;-0.34;100.00
68077;BME280;54866;53.458;14.540;2023-01-29T07:11:10;101395.64;;;-0.33;100.00
68077;BME280;54866;53.458;14.540;2023-01-29T07:13:39;101397.18;;;-0.32;100.00
68077;BME280;54866;53.458;14.540;2023-01-29T07:16:10;101394.73;;;-0.31;100.00
68077;BME280;54866;53.458;14.540;2023-01-29T07:18:39;101392.64;;;-0.30;100.00
68077;BME280;54866;53.458;14.540;2023-01-29T07:21:09;101381.01;;;-0.29;100.00
68077;BME280;54866;53.458;14.540;2023-01-29T07:23:38;101378.59;;;-0.29;100.00
68077;BME280;54866;53.458;14.540;2023-01-29T07:26:09;101382.23;;;-0.29;100.00
68077;BME280;54866;53.458;14.540;2023-01-29T07:28:39;101376.37;;;-0.31;100.00
68077;BME280;54866;53.458;14.540;2023-01-29T07:31:11;101380.98;;;-0.28;100.00
68077;BME280;54866;53.458;14.540;2023-01-29T07:33:43;101378.70;;;-0.27;100.00
68077;BME280;54866;53.458;14.540;2023-01-29T07:36:13;101386.66;;;-0.27;100.00
68077;BME280;54866;53.458;14.540;2023-01-29T07:38:42;101394.71;;;-0.23;100.00
68077;BME280;54866;53.458;14.540;2023-01-29T07:41:12;101396.55;;;-0.20;100.00
68077;BME280;54866;53.458;14.540;2023-01-29T07:43:42;101392.89;;;-0.19;100.00
68077;BME280;54866;53.458;14.540;2023-01-29T07:46:11;101385.76;;;-0.17;100.00
68077;BME280;54866;53.458;14.540;2023-01-29T07:48:41;101384.90;;;-0.17;100.00
68077;BME280;54866;53.458;14.540;2023-01-29T07:51:10;101383.98;;;-0.15;100.00
68077;BME280;54866;53.458;14.540;2023-01-29T07:53:39;101383.74;;;-0.12;100.00
68077;BME280;54866;53.458;14.540;2023-01-29T07:56:09;101377.81;;;-0.11;100.00
68077;BME280;54866;53.458;14.540;2023-01-29T07:58:38;101384.70;;;-0.09;100.00
68077;BME280;54866;53.458;14.540;2023-01-29T08:01:08;101383.95;;;-0.07;100.00
68077;BME280;54866;53.458;14.540;2023-01-29T08:03:37;101376.66;;;-0.06;100.00
68077;BME280;54866;53.458;14.540;2023-01-29T08:06:07;101374.75;;;-0.06;100.00
68077;BME280;54866;53.458;14.540;2023-01-29T08:08:36;101365.42;;;-0.07;100.00
68077;BME280;54866;53.458;14.540;2023-01-29T08:11:06;101365.39;;;-0.06;100.00
68077;BME280;54866;53.458;14.540;2023-01-29T08:13:35;101361.62;;;-0.07;100.00
68077;BME280;54866;53.458;14.540;2023-01-29T08:16:06;101355.96;;;-0.09;100.00
68077;BME280;54866;53.458;14.540;2023-01-29T08:18:36;101353.24;;;-0.11;100.00
68077;BME280;54866;53.458;14.540;2023-01-29T08:21:06;101352.08;;;-0.13;100.00
68077;BME280;54866;53.458;14.540;2023-01-29T08:23:35;101350.34;;;-0.13;100.00
68077;BME280;54866;53.458;14.540;2023-01-29T08:26:05;101346.55;;;-0.14;100.00
68077;BME280;54866;53.458;14.540;2023-01-29T08:28:35;101347.09;;;-0.15;100.00
68077;BME280;54866;53.458;14.540;2023-01-29T08:31:11;101346.24;;;-0.15;100.00
68077;BME280;54866;53.458;14.540;2023-01-29T08:33:40;101339.88;;;-0.17;100.00
68077;BME280;54866;53.458;14.540;2023-01-29T08:36:10;101340.40;;;-0.18;100.00
68077;BME280;54866;53.458;14.540;2023-01-29T08:38:40;101326.80;;;-0.21;100.00
68077;BME280;54866;53.458;14.540;2023-01-29T08:41:09;101338.14;;;-0.17;100.00
68077;BME280;54866;53.458;14.540;2023-01-29T08:43:38;101337.96;;;-0.17;100.00
68077;BME280;54866;53.458;14.540;2023-01-29T08:46:08;101340.02;;;-0.16;100.00
68077;BME280;54866;53.458;14.540;2023-01-29T08:48:37;101349.18;;;-0.15;100.00
68077;BME280;54866;53.458;14.540;2023-01-29T08:51:07;101345.86;;;-0.14;100.00
68077;BME280;54866;53.458;14.540;2023-01-29T08:53:37;101350.52;;;-0.13;100.00
68077;BME280;54866;53.458;14.540;2023-01-29T08:56:07;101348.78;;;-0.14;100.00
68077;BME280;54866;53.458;14.540;2023-01-29T08:58:36;101351.13;;;-0.10;100.00
68077;BME280;54866;53.458;14.540;2023-01-29T09:01:10;101349.06;;;-0.11;100.00
68077;BME280;54866;53.458;14.540;2023-01-29T09:03:40;101350.52;;;-0.07;100.00
68077;BME280;54866;53.458;14.540;2023-01-29T09:06:12;101348.21;;;-0.04;100.00
68077;BME280;54866;53.458;14.540;2023-01-29T09:08:42;101344.87;;;-0.02;100.00
68077;BME280;54866;53.458;14.540;2023-01-29T09:11:11;101347.98;;;-0.02;100.00
68077;BME280;54866;53.458;14.540;2023-01-29T09:13:41;101359.39;;;-0.02;100.00
68077;BME280;54866;53.458;14.540;2023-01-29T09:16:10;101362.33;;;-0.00;100.00
68077;BME280;54866;53.458;14.540;2023-01-29T09:18:39;101359.54;;;0.00;100.00
68077;BME280;54866;53.458;14.540;2023-01-29T09:21:09;101353.46;;;0.02;100.00
68077;BME280;54866;53.458;14.540;2023-01-29T09:23:38;101349.45;;;0.03;100.00
68077;BME280;54866;53.458;14.540;2023-01-29T09:26:08;101342.48;;;0.04;100.00
68077;BME280;54866;53.458;14.540;2023-01-29T09:28:38;101338.27;;;0.06;100.00
68077;BME280;54866;53.458;14.540;2023-01-29T09:31:07;101339.09;;;0.08;100.00
68077;BME280;54866;53.458;14.540;2023-01-29T09:33:36;101332.13;;;0.10;100.00
68077;BME280;54866;53.458;14.540;2023-01-29T09:36:07;101345.13;;;0.15;100.00
68077;BME280;54866;53.458;14.540;2023-01-29T09:38:36;101351.48;;;0.19;100.00
68077;BME280;54866;53.458;14.540;2023-01-29T09:41:18;101347.09;;;0.21;100.00
68077;BME280;54866;53.458;14.540;2023-01-29T09:43:55;101347.88;;;0.24;100.00
68077;BME280;54866;53.458;14.540;2023-01-29T09:46:32;101346.30;;;0.25;100.00
68077;BME280;54866;53.458;14.540;2023-01-29T09:49:05;101353.83;;;0.28;100.00
68077;BME280;54866;53.458;14.540;2023-01-29T09:51:38;101363.98;;;0.30;100.00
68077;BME280;54866;53.458;14.540;2023-01-29T09:54:15;101363.60;;;0.33;100.00
68077;BME280;54866;53.458;14.540;2023-01-29T09:56:46;101355.91;;;0.35;100.00
68077;BME280;54866;53.458;14.540;2023-01-29T09:59:19;101352.19;;;0.39;100.00
68077;BME280;54866;53.458;14.540;2023-01-29T10:01:58;101344.48;;;0.42;100.00
68077;BME280;54866;53.458;14.540;2023-01-29T10:05:08;101338.90;;;0.43;100.00
68077;BME280;54866;53.458;14.540;2023-01-29T10:07:57;101338.30;;;0.46;100.00
68077;BME280;54866;53.458;14.540;2023-01-29T10:10:41;101330.41;;;0.49;100.00
68077;BME280;54866;53.458;14.540;2023-01-29T10:13:23;101317.36;;;0.50;100.00
68077;BME280;54866;53.458;14.540;2023-01-29T10:16:06;101307.05;;;0.54;100.00
68077;BME280;54866;53.458;14.540;2023-01-29T10:18:53;101302.83;;;0.57;100.00
68077;BME280;54866;53.458;14.540;2023-01-29T10:21:42;101295.80;;;0.60;100.00
68077;BME280;54866;53.458;14.540;2023-01-29T10:24:25;101292.80;;;0.62;100.00
68077;BME280;54866;53.458;14.540;2023-01-29T10:27:00;101295.88;;;0.63;100.00
68077;BME280;54866;53.458;14.540;2023-01-29T10:29:31;101290.48;;;0.64;100.00
68077;BME280;54866;53.458;14.540;2023-01-29T10:32:03;101284.52;;;0.66;100.00
68077;BME280;54866;53.458;14.540;2023-01-29T10:34:37;101273.37;;;0.68;100.00
68077;BME280;54866;53.458;14.540;2023-01-29T10:37:16;101269.01;;;0.69;100.00
68077;BME280;54866;53.458;14.540;2023-01-29T10:39:46;101257.77;;;0.68;100.00
68077;BME280;54866;53.458;14.540;2023-01-29T19:44:36;100631.04;;;0.69;100.00
68077;BME280;54866;53.458;14.540;2023-01-29T19:47:06;100629.56;;;0.67;100.00
68077;BME280;54866;53.458;14.540;2023-01-29T19:49:36;100619.61;;;0.69;100.00
68077;BME280;54866;53.458;14.540;2023-01-29T19:52:07;100617.45;;;0.71;100.00
68077;BME280;54866;53.458;14.540;2023-01-29T19:54:57;100611.21;;;0.76;100.00
68077;BME280;54866;53.458;14.540;2023-01-29T19:57:26;100608.97;;;0.80;100.00
68077;BME280;54866;53.458;14.540;2023-01-29T19:59:56;100596.52;;;0.82;100.00
68077;BME280;54866;53.458;14.540;2023-01-29T20:02:26;100595.90;;;0.85;100.00
68077;BME280;54866;53.458;14.540;2023-01-29T20:04:55;100591.34;;;0.87;100.00
68077;BME280;54866;53.458;14.540;2023-01-29T20:07:26;100597.02;;;0.88;100.00
68077;BME280;54866;53.458;14.540;2023-01-29T20:09:55;100591.44;;;0.89;100.00
68077;BME280;54866;53.458;14.540;2023-01-29T20:12:25;100578.55;;;0.90;100.00
68077;BME280;54866;53.458;14.540;2023-01-29T20:14:54;100572.29;;;0.91;100.00
68077;BME280;54866;53.458;14.540;2023-01-29T20:17:24;100570.48;;;0.93;100.00
68077;BME280;54866;53.458;14.540;2023-01-29T20:19:53;100557.98;;;0.93;100.00
68077;BME280;54866;53.458;14.540;2023-01-29T20:22:22;100565.04;;;0.94;100.00
68077;BME280;54866;53.458;14.540;2023-01-29T20:24:53;100556.05;;;0.94;100.00
68077;BME280;54866;53.458;14.540;2023-01-29T20:27:23;100546.69;;;0.93;99.97
68077;BME280;54866;53.458;14.540;2023-01-29T20:29:52;100554.16;;;0.97;99.64
68077;BME280;54866;53.458;14.540;2023-01-29T20:32:22;100542.58;;;0.96;99.86
68077;BME280;54866;53.458;14.540;2023-01-29T20:34:51;100537.38;;;0.92;99.98
68077;BME280;54866;53.458;14.540;2023-01-29T20:37:20;100533.75;;;0.92;99.93
68077;BME280;54866;53.458;14.540;2023-01-29T20:39:50;100534.66;;;0.90;99.87
68077;BME280;54866;53.458;14.540;2023-01-29T20:42:19;100526.80;;;0.87;99.98
68077;BME280;54866;53.458;14.540;2023-01-29T20:44:48;100522.71;;;0.85;100.00
68077;BME280;54866;53.458;14.540;2023-01-29T20:47:18;100510.52;;;0.82;100.00
68077;BME280;54866;53.458;14.540;2023-01-29T20:49:47;100497.70;;;0.78;100.00
68077;BME280;54866;53.458;14.540;2023-01-29T20:52:17;100495.30;;;0.78;100.00
68077;BME280;54866;53.458;14.540;2023-01-29T20:54:46;100485.52;;;0.75;100.00
68077;BME280;54866;53.458;14.540;2023-01-29T20:57:15;100460.02;;;0.71;100.00
68077;BME280;54866;53.458;14.540;2023-01-29T20:59:45;100470.66;;;0.69;100.00
68077;BME280;54866;53.458;14.540;2023-01-29T21:02:14;100468.31;;;0.67;100.00
68077;BME280;54866;53.458;14.540;2023-01-29T21:04:44;100474.45;;;0.66;100.00
68077;BME280;54866;53.458;14.540;2023-01-29T21:07:13;100461.30;;;0.65;100.00
68077;BME280;54866;53.458;14.540;2023-01-29T21:09:43;100463.23;;;0.65;100.00
68077;BME280;54866;53.458;14.540;2023-01-29T21:12:12;100452.96;;;0.61;100.00
68077;BME280;54866;53.458;14.540;2023-01-29T21:14:41;100447.91;;;0.62;100.00
68077;BME280;54866;53.458;14.540;2023-01-29T21:17:10;100448.79;;;0.62;100.00
68077;BME280;54866;53.458;14.540;2023-01-29T21:19:40;100449.36;;;0.60;100.00
68077;BME280;54866;53.458;14.540;2023-01-29T21:22:11;100431.19;;;0.60;100.00
68077;BME280;54866;53.458;14.540;2023-01-29T21:24:40;100422.19;;;0.59;100.00
68077;BME280;54866;53.458;14.540;2023-01-29T21:27:09;100420.84;;;0.58;100.00
68077;BME280;54866;53.458;14.540;2023-01-29T21:29:39;100418.17;;;0.60;100.00
68077;BME280;54866;53.458;14.540;2023-01-29T21:32:08;100417.91;;;0.58;100.00
68077;BME280;54866;53.458;14.540;2023-01-29T21:34:38;100418.91;;;0.59;100.00
68077;BME280;54866;53.458;14.540;2023-01-29T21:37:08;100413.40;;;0.58;100.00
68077;BME280;54866;53.458;14.540;2023-01-29T21:39:37;100412.53;;;0.58;100.00
68077;BME280;54866;53.458;14.540;2023-01-29T21:42:06;100409.86;;;0.59;100.00
68077;BME280;54866;53.458;14.540;2023-01-29T21:44:54;100412.77;;;0.61;100.00
68077;BME280;54866;53.458;14.540;2023-01-29T21:47:23;100408.96;;;0.60;100.00
68077;BME280;54866;53.458;14.540;2023-01-29T21:49:53;100406.30;;;0.62;100.00
68077;BME280;54866;53.458;14.540;2023-01-29T21:52:22;100399.36;;;0.62;100.00
68077;BME280;54866;53.458;14.540;2023-01-29T21:54:51;100388.31;;;0.61;100.00
68077;BME280;54866;53.458;14.540;2023-01-29T21:57:20;100384.65;;;0.61;100.00
68077;BME280;54866;53.458;14.540;2023-01-29T21:59:54;100375.60;;;0.63;100.00
68077;BME280;54866;53.458;14.540;2023-01-29T22:02:24;100380.92;;;0.64;100.00
68077;BME280;54866;53.458;14.540;2023-01-29T22:04:54;100359.15;;;0.66;100.00
68077;BME280;54866;53.458;14.540;2023-01-29T22:07:24;100357.57;;;0.66;100.00